Time;durP1;ratioP1;P1;durP2;ratioP2;P2;SDS_P1;SDS_P2;PMS_P1;PMS_P2;Temp;Humidity;BMP_temperature;BMP_pressure;BME280_temperature;BME280_humidity;BME280_pressure;Samples;Min_cycle;Max_cycle;Signal;HPM_P1;HPM_P2
2023/03/27 00:01:16;;;;;;;4.20;0.85;;;;;;;3.77;83.29;101558.50;6133294;23;20018;-80
2023/03/27 00:03:43;;;;;;;4.90;1.27;;;;;;;3.79;83.29;101560.78;6133842;23;20020;-80
2023/03/27 00:06:15;;;;;;;4.57;0.90;;;;;;;3.77;83.37;101565.66;6159328;23;20405;-80
2023/03/27 00:08:47;;;;;;;1.48;1.10;;;;;;;3.75;83.41;101579.19;6160080;23;20049;-78
2023/03/27 00:11:15;;;;;;;1.88;0.80;;;;;;;3.71;83.96;101578.44;6159449;23;20082;-79
2023/03/27 00:13:43;;;;;;;3.50;1.20;;;;;;;3.69;84.03;101575.41;6159490;23;20440;-79
2023/03/27 00:16:16;;;;;;;6.30;1.58;;;;;;;3.69;83.84;101578.81;6159464;23;20014;-80
2023/03/27 00:18:43;;;;;;;4.40;1.13;;;;;;;3.67;83.79;101573.16;6159963;23;20096;-80
2023/03/27 00:21:10;;;;;;;7.53;0.93;;;;;;;3.67;83.87;101578.41;6133338;23;20093;-80
2023/03/27 00:23:37;;;;;;;3.10;0.90;;;;;;;3.66;83.94;101590.06;6159746;23;20471;-80
2023/03/27 00:26:04;;;;;;;5.80;1.42;;;;;;;3.67;84.11;101575.03;6159892;23;20014;-79
2023/03/27 00:28:31;;;;;;;1.58;0.77;;;;;;;3.68;84.10;101581.81;6159070;23;20017;-79
2023/03/27 00:30:57;;;;;;;2.55;1.23;;;;;;;3.67;84.05;101593.47;6109177;23;20028;-80
2023/03/27 00:33:26;;;;;;;6.05;1.10;;;;;;;3.64;84.19;101594.97;6159320;23;20539;-80
2023/03/27 00:35:53;;;;;;;5.43;1.27;;;;;;;3.64;84.47;101596.84;6133397;23;20395;-77
2023/03/27 00:38:19;;;;;;;4.30;0.93;;;;;;;3.63;84.63;101603.22;6159265;23;20073;-77
2023/03/27 00:40:49;;;;;;;1.30;0.90;;;;;;;3.61;84.56;101608.88;6159406;23;20018;-77
2023/03/27 00:43:19;;;;;;;4.93;1.08;;;;;;;3.60;84.79;101603.97;6159288;23;20089;-79
2023/03/27 00:45:47;;;;;;;3.42;1.30;;;;;;;3.60;84.90;101603.97;6135042;23;20026;-77
2023/03/27 00:48:14;;;;;;;5.32;1.00;;;;;;;3.58;85.14;101612.25;6135049;23;20081;-79
2023/03/27 00:50:43;;;;;;;5.60;1.10;;;;;;;3.59;85.12;101619.03;6136475;23;20014;-77
2023/03/27 00:53:14;;;;;;;3.47;1.00;;;;;;;3.58;85.06;101612.25;6134882;23;20036;-78
2023/03/27 00:55:43;;;;;;;;;;;;;;;3.57;84.67;101620.53;6159901;23;20017;-80
2023/03/27 00:58:16;;;;;;;6.88;1.15;;;;;;;3.58;85.22;101628.06;6159186;23;19931;-78
2023/03/27 01:00:45;;;;;;;2.83;1.20;;;;;;;3.58;85.29;101624.66;6133649;23;20435;-80
2023/03/27 01:03:13;;;;;;;5.03;0.93;;;;;;;3.53;85.37;101622.38;6159094;23;20073;-77
2023/03/27 01:05:40;;;;;;;4.18;1.35;;;;;;;3.50;85.34;101629.16;6159869;23;20480;-77
2023/03/27 01:08:06;;;;;;;6.15;1.33;;;;;;;3.45;85.56;101628.75;6159366;23;20014;-77
2023/03/27 01:10:58;;;;;;;2.03;0.98;;;;;;;3.40;85.52;101639.63;6159093;23;20405;-76
2023/03/27 01:13:37;;;;;;;2.00;1.08;;;;;;;3.35;85.74;101641.47;6132746;23;20028;-76
2023/03/27 01:16:19;;;;;;;3.60;1.20;;;;;;;3.32;85.99;101646.72;6133355;23;20105;-76
2023/03/27 01:19:29;;;;;;;8.02;1.25;;;;;;;3.31;85.85;101656.47;6159999;23;20022;-77
2023/03/27 01:22:31;;;;;;;6.28;0.88;;;;;;;3.30;86.31;101654.22;6160018;23;20021;-76
2023/03/27 01:25:11;;;;;;;0.90;0.82;;;;;;;3.29;86.51;101655.34;6133016;23;20022;-76
2023/03/27 01:28:25;;;;;;;5.43;1.25;;;;;;;3.31;86.66;101656.47;6159487;23;20057;-76
2023/03/27 01:30:58;;;;;;;2.22;0.90;;;;;;;3.32;86.99;101660.63;6011132;23;20085;-76
2023/03/27 01:33:46;;;;;;;3.05;1.00;;;;;;;3.32;87.17;101665.13;5987456;23;21135;-76
2023/03/27 01:36:43;;;;;;;6.72;1.40;;;;;;;3.31;87.45;101664.38;5986864;23;20028;-77
2023/03/27 01:39:15;;;;;;;1.63;1.00;;;;;;;3.30;87.41;101670.00;5986645;23;20134;-76
2023/03/27 01:41:50;;;;;;;12.15;1.20;;;;;;;3.29;87.84;101676.38;5987479;23;20028;-76
2023/03/27 01:44:27;;;;;;;5.47;1.08;;;;;;;3.27;87.21;101678.63;5987531;23;20020;-76
2023/03/27 01:47:20;;;;;;;0.60;0.60;;;;;;;3.26;86.92;101675.25;6010600;23;20027;-76
2023/03/27 01:49:59;;;;;;;3.55;0.60;;;;;;;3.24;86.61;101676.72;6011342;23;20028;-76
2023/03/27 01:52:30;;;;;;;1.80;0.80;;;;;;;3.22;86.35;101681.59;6010658;23;20028;-76
2023/03/27 01:55:03;;;;;;;5.15;0.88;;;;;;;3.20;86.33;101681.25;6010978;23;20028;-76
2023/03/27 01:57:59;;;;;;;2.30;0.73;;;;;;;3.18;86.21;101686.09;5987597;23;20142;-76
2023/03/27 02:00:28;;;;;;;1.15;0.77;;;;;;;3.18;86.32;101688.75;5986785;23;20024;-76
2023/03/27 02:03:25;;;;;;;4.18;0.80;;;;;;;3.18;86.31;101686.88;5987423;23;20095;-77
2023/03/27 02:06:02;;;;;;;1.42;0.75;;;;;;;3.19;86.05;101690.25;6058648;23;20401;-77
2023/03/27 02:08:38;;;;;;;1.20;0.70;;;;;;;3.18;86.43;101692.13;6107482;23;20097;-77
2023/03/27 02:11:13;;;;;;;1.92;0.63;;;;;;;3.16;86.34;101698.88;6131860;23;20029;-77
2023/03/27 02:13:42;;;;;;;4.50;1.02;;;;;;;3.13;86.57;101712.75;6132799;23;20026;-77
2023/03/27 02:16:15;;;;;;;2.28;0.75;;;;;;;3.09;86.40;101702.19;6131885;23;20464;-77
2023/03/27 02:18:48;;;;;;;4.80;0.93;;;;;;;3.05;86.66;101711.19;6133309;23;20022;-77
2023/03/27 02:21:15;;;;;;;4.30;0.93;;;;;;;3.00;86.78;101714.91;6132145;23;20048;-77
2023/03/27 02:23:43;;;;;;;2.47;0.70;;;;;;;2.97;87.05;101711.13;6131577;23;20452;-77
2023/03/27 02:26:12;;;;;;;2.38;0.70;;;;;;;2.92;87.42;101714.06;6132015;23;20018;-77
2023/03/27 02:29:17;;;;;;;3.22;0.60;;;;;;;2.88;87.45;101721.19;6132942;23;20464;-77
2023/03/27 02:32:16;;;;;;;1.75;0.55;;;;;;;2.82;87.39;101725.25;6132690;23;20022;-79
2023/03/27 02:35:01;;;;;;;2.95;0.90;;;;;;;2.77;87.70;101719.59;6039737;23;20107;-77
2023/03/27 02:37:50;;;;;;;1.05;0.80;;;;;;;2.72;87.80;101728.56;6014445;23;20084;-78
2023/03/27 02:40:25;;;;;;;2.20;0.95;;;;;;;2.68;87.77;101725.13;6039143;23;20028;-78
2023/03/27 02:43:11;;;;;;;0.47;0.47;;;;;;;2.63;88.16;101728.09;6015701;23;20020;-77
2023/03/27 02:45:58;;;;;;;0.95;0.73;;;;;;;2.57;88.34;101726.91;6015593;23;20266;-77
2023/03/27 02:48:34;;;;;;;2.53;0.73;;;;;;;2.52;88.41;101722.72;6038638;23;20618;-77
2023/03/27 02:51:42;;;;;;;1.55;0.70;;;;;;;2.46;88.66;101734.66;6040142;23;20020;-77
2023/03/27 02:54:14;;;;;;;0.82;0.60;;;;;;;2.40;88.90;101728.22;5968953;23;20548;-78
2023/03/27 02:56:53;;;;;;;2.72;0.82;;;;;;;2.37;89.01;101731.59;6063442;23;20091;-77
2023/03/27 02:59:34;;;;;;;3.33;0.93;;;;;;;2.32;88.98;101740.53;6014155;23;20420;-77
2023/03/27 03:02:06;;;;;;;1.38;0.77;;;;;;;2.29;89.20;101738.63;6015349;23;20080;-79
2023/03/27 03:04:49;;;;;;;1.40;0.70;;;;;;;2.29;89.19;101741.25;6015456;23;20024;-77
2023/03/27 03:07:21;;;;;;;2.05;1.00;;;;;;;2.27;89.65;101748.72;6038305;23;20039;-77
2023/03/27 03:09:48;;;;;;;1.02;0.68;;;;;;;2.28;89.82;101760.00;6015602;23;20062;-77
2023/03/27 03:12:14;;;;;;;2.55;0.75;;;;;;;2.29;89.84;101756.25;6094486;23;20062;-79
2023/03/27 03:14:44;;;;;;;2.88;0.90;;;;;;;2.30;90.11;101765.66;6132371;23;20017;-78
2023/03/27 03:17:12;;;;;;;6.63;0.80;;;;;;;2.28;89.93;101767.88;6132144;23;20050;-77
2023/03/27 03:19:38;;;;;;;6.57;0.93;;;;;;;2.26;90.06;101770.09;6132828;23;20118;-77
2023/03/27 03:22:05;;;;;;;1.38;0.50;;;;;;;2.22;90.00;101772.69;6131403;23;20151;-79
2023/03/27 03:24:34;;;;;;;4.72;1.00;;;;;;;2.18;89.89;101785.03;6132368;23;20022;-79
2023/03/27 03:27:03;;;;;;;2.53;0.80;;;;;;;2.12;90.21;101786.44;6132418;23;20026;-79
2023/03/27 03:29:37;;;;;;;2.22;1.02;;;;;;;2.05;90.35;101788.97;6132302;23;20077;-79
2023/03/27 03:32:14;;;;;;;1.35;0.90;;;;;;;2.01;90.96;101782.91;6131588;23;20022;-79
2023/03/27 03:34:45;;;;;;;2.70;1.35;;;;;;;1.96;90.95;101785.88;6132195;23;20558;-79
2023/03/27 03:37:13;;;;;;;1.23;0.77;;;;;;;1.94;91.27;101798.59;6133005;23;20084;-79
2023/03/27 03:39:40;;;;;;;3.92;0.80;;;;;;;1.91;91.48;101799.31;6133634;23;20479;-79
2023/03/27 03:42:06;;;;;;;5.70;1.20;;;;;;;1.88;91.38;101811.28;6133170;23;20022;-77
2023/03/27 03:44:35;;;;;;;2.85;1.05;;;;;;;1.84;91.58;101813.09;6133631;23;20058;-77
2023/03/27 03:47:14;;;;;;;1.08;0.70;;;;;;;1.81;91.57;101819.03;6132611;23;20022;-79
2023/03/27 03:49:41;;;;;;;0.77;0.70;;;;;;;1.79;91.50;101817.88;6133202;23;20487;-79
2023/03/27 03:52:08;;;;;;;4.57;0.90;;;;;;;1.74;91.20;101826.03;6132988;23;20049;-79
2023/03/27 03:54:37;;;;;;;2.63;0.82;;;;;;;1.70;91.50;101831.25;6133565;23;20021;-79
2023/03/27 03:57:04;;;;;;;2.30;0.90;;;;;;;1.65;91.66;101827.03;6133470;23;20026;-79
2023/03/27 03:59:32;;;;;;;1.50;0.70;;;;;;;1.63;91.77;101836.38;6133057;23;20029;-79
2023/03/27 04:02:27;;;;;;;6.28;1.23;;;;;;;1.60;91.95;101837.81;6159308;23;20026;-79
2023/03/27 04:04:58;;;;;;;2.13;0.80;;;;;;;1.59;92.14;101830.34;6133135;23;20337;-79
2023/03/27 04:07:34;;;;;;;3.45;0.85;;;;;;;1.55;92.07;101840.78;6132736;23;20483;-79
2023/03/27 04:10:38;;;;;;;1.23;0.77;;;;;;;1.56;92.22;101844.16;6069572;23;20077;-77
2023/03/27 04:13:12;;;;;;;2.15;1.08;;;;;;;1.53;92.33;101845.63;6068397;23;20026;-77
2023/03/27 04:15:50;;;;;;;5.55;1.20;;;;;;;1.52;92.47;101849.34;6069153;23;20060;-77
2023/03/27 04:18:31;;;;;;;4.30;0.73;;;;;;;1.53;92.83;101853.50;6044066;23;20027;-77
2023/03/27 04:21:00;;;;;;;3.58;0.68;;;;;;;1.53;92.94;101850.88;6044886;23;20449;-77
2023/03/27 04:23:32;;;;;;;3.70;0.77;;;;;;;1.53;93.04;101853.50;6068702;23;20481;-78
2023/03/27 04:26:00;;;;;;;2.50;1.00;;;;;;;1.54;93.25;101857.63;6069082;23;20023;-78
2023/03/27 04:28:50;;;;;;;1.75;0.90;;;;;;;1.53;93.64;101858.75;6044564;23;20208;-78
2023/03/27 04:31:37;;;;;;;1.48;0.82;;;;;;;1.52;93.10;101864.34;6069015;23;20027;-78
2023/03/27 04:34:24;;;;;;;4.82;0.85;;;;;;;1.49;93.40;101857.91;6068500;23;20118;-78
2023/03/27 04:37:17;;;;;;;3.10;0.80;;;;;;;1.46;93.50;101866.47;6057522;23;20027;-78
2023/03/27 04:40:19;;;;;;;4.13;0.80;;;;;;;1.44;93.64;101875.81;6059484;23;20027;-79
2023/03/27 04:42:46;;;;;;;2.90;0.80;;;;;;;1.41;93.75;101889.63;6048800;23;20060;-78
2023/03/27 04:45:19;;;;;;;2.00;0.73;;;;;;;1.36;93.92;101895.91;6137147;23;20025;-79
2023/03/27 04:47:48;;;;;;;0.90;0.68;;;;;;;1.36;93.79;101901.16;6159338;23;20176;-78
2023/03/27 04:50:16;;;;;;;6.05;1.20;;;;;;;1.39;93.79;101907.59;6131202;23;20066;-78
2023/03/27 04:52:43;;;;;;;5.28;1.10;;;;;;;1.41;93.61;101895.63;6131793;23;20568;-78
2023/03/27 04:55:11;;;;;;;2.05;0.82;;;;;;;1.43;93.59;101903.91;6131069;23;20049;-79
2023/03/27 04:57:40;;;;;;;2.10;0.88;;;;;;;1.46;93.28;101897.22;6108898;23;20082;-76
2023/03/27 05:00:15;;;;;;;5.47;1.02;;;;;;;1.46;93.24;101899.84;6134126;23;20097;-75
2023/03/27 05:02:46;;;;;;;4.13;0.85;;;;;;;1.45;93.29;101906.94;6134222;23;20472;-81
2023/03/27 05:05:35;;;;;;;2.58;0.68;;;;;;;1.45;93.21;101906.94;6159557;23;20206;-80
2023/03/27 05:08:04;;;;;;;2.55;0.93;;;;;;;1.44;93.42;101909.94;6133622;23;20077;-78
2023/03/27 05:10:30;;;;;;;2.00;1.13;;;;;;;1.41;93.45;101914.00;6133906;23;20026;-78
2023/03/27 05:12:58;;;;;;;3.30;0.90;;;;;;;1.39;93.53;101910.97;6134185;23;20029;-78
2023/03/27 05:15:25;;;;;;;1.90;1.17;;;;;;;1.38;93.62;101919.94;6133502;23;20017;-79
2023/03/27 05:17:53;;;;;;;5.43;0.95;;;;;;;1.34;93.67;101921.75;6160121;23;20022;-81
2023/03/27 05:20:23;;;;;;;0.85;0.80;;;;;;;1.33;93.51;101917.59;6160051;23;20046;-78
2023/03/27 05:22:55;;;;;;;0.98;0.93;;;;;;;1.33;93.46;101925.47;6134020;23;20077;-78
2023/03/27 05:25:24;;;;;;;1.50;0.75;;;;;;;1.36;93.42;101927.41;6160227;23;20457;-79
2023/03/27 05:27:53;;;;;;;3.70;0.77;;;;;;;1.36;93.36;101935.28;6133719;23;20433;-77
2023/03/27 05:30:22;;;;;;;0.93;0.70;;;;;;;1.36;93.57;101935.28;6133383;23;20094;-78
2023/03/27 05:32:57;;;;;;;3.95;0.88;;;;;;;1.36;93.29;101939.75;6132908;23;20516;-79
2023/03/27 05:35:27;;;;;;;;;;;;;;;1.36;93.17;101940.53;6133977;23;20018;-77
2023/03/27 05:37:56;;;;;;;2.50;0.65;;;;;;;1.34;93.15;101943.50;6133214;23;20342;-78
2023/03/27 05:40:33;;;;;;;5.85;1.40;;;;;;;1.33;93.04;101941.97;6133199;23;20022;-76
2023/03/27 05:43:00;;;;;;;6.07;1.13;;;;;;;1.33;93.02;101946.47;6133614;23;20088;-80
2023/03/27 05:45:28;;;;;;;6.75;0.77;;;;;;;1.34;93.08;101947.97;6133026;23;20014;-80
2023/03/27 05:47:57;;;;;;;2.65;0.70;;;;;;;1.33;93.33;101954.31;6133573;23;20026;-77
2023/03/27 05:50:27;;;;;;;4.35;0.77;;;;;;;1.35;93.38;101954.75;6158143;23;20022;-77
2023/03/27 05:52:58;;;;;;;5.78;0.98;;;;;;;1.38;93.17;101954.06;6133812;23;20026;-77
2023/03/27 05:55:33;;;;;;;4.32;1.27;;;;;;;1.43;93.07;101953.03;6133139;23;20117;-76
2023/03/27 05:58:00;;;;;;;3.55;1.10;;;;;;;1.44;92.94;101950.03;6133431;23;20025;-76
2023/03/27 06:00:30;;;;;;;3.38;0.68;;;;;;;1.46;93.14;101955.72;6132674;23;20417;-77
2023/03/27 06:03:00;;;;;;;2.38;1.00;;;;;;;1.50;93.03;101955.78;6134043;23;20092;-81
2023/03/27 06:05:59;;;;;;;2.10;0.98;;;;;;;1.56;92.81;101960.41;6115340;23;20018;-76
2023/03/27 06:08:31;;;;;;;6.65;0.90;;;;;;;1.58;92.56;101962.69;6109886;23;20341;-77
2023/03/27 06:10:57;;;;;;;2.10;1.00;;;;;;;1.61;92.77;101962.72;6133608;23;20073;-76
2023/03/27 06:13:32;;;;;;;5.80;0.80;;;;;;;1.61;92.66;101960.09;6133248;23;20052;-79
2023/03/27 06:16:05;;;;;;;2.45;1.13;;;;;;;1.65;92.79;101965.41;6133260;23;20014;-77
2023/03/27 06:18:55;;;;;;;2.63;0.70;;;;;;;1.74;92.56;101967.81;6147545;23;20029;-78
2023/03/27 06:21:22;;;;;;;4.85;1.48;;;;;;;1.73;92.41;101967.06;6132839;23;20030;-80
2023/03/27 06:23:55;;;;;;;3.60;1.05;;;;;;;1.73;92.46;101980.19;6133782;23;20018;-80
2023/03/27 06:26:22;;;;;;;2.78;0.70;;;;;;;1.90;92.42;101977.13;6133212;23;20024;-80
2023/03/27 06:28:49;;;;;;;2.75;1.45;;;;;;;1.93;92.30;101968.53;6108224;23;20022;-79
2023/03/27 06:31:16;;;;;;;6.78;1.13;;;;;;;2.45;92.47;101979.47;6133646;23;20022;-79
2023/03/27 06:34:01;;;;;;;1.75;1.08;;;;;;;3.98;88.75;101989.91;6112727;23;20018;-79
2023/03/27 06:36:50;;;;;;;5.43;1.27;;;;;;;5.01;83.50;101996.63;6138574;23;20026;-78
2023/03/27 06:39:17;;;;;;;4.32;1.25;;;;;;;5.27;80.42;102005.38;6159072;23;20092;-78
2023/03/27 06:41:49;;;;;;;7.13;1.23;;;;;;;5.40;78.77;101997.91;6133486;23;20034;-78
2023/03/27 06:44:23;;;;;;;2.45;1.30;;;;;;;5.35;77.57;102006.94;6132555;23;20449;-78
2023/03/27 06:46:58;;;;;;;4.95;1.50;;;;;;;5.29;77.01;102003.13;6110341;23;20041;-78
2023/03/27 06:49:32;;;;;;;10.60;1.67;;;;;;;4.54;77.77;102008.03;6110210;23;20029;-78
2023/03/27 06:52:07;;;;;;;6.20;1.30;;;;;;;4.10;79.48;102002.03;6110889;23;20467;-78
2023/03/27 06:54:34;;;;;;;5.13;1.35;;;;;;;4.03;80.93;102015.91;6159622;23;20021;-78
2023/03/27 06:57:01;;;;;;;3.10;1.13;;;;;;;4.16;80.81;102014.53;6109262;23;20017;-79
2023/03/27 06:59:39;;;;;;;4.93;1.13;;;;;;;4.18;80.71;102020.19;6132994;23;20022;-79
2023/03/27 07:02:10;;;;;;;6.75;1.40;;;;;;;4.22;80.83;102021.00;6108922;23;20360;-80
2023/03/27 07:04:56;;;;;;;7.63;0.98;;;;;;;4.26;79.69;102021.00;6137913;23;20167;-77
2023/03/27 07:07:38;;;;;;;7.93;1.40;;;;;;;4.27;80.08;102027.81;6133552;23;20693;-79
2023/03/27 07:10:09;;;;;;;7.38;1.92;;;;;;;4.35;79.63;102024.09;6133728;23;20025;-79
2023/03/27 07:12:37;;;;;;;7.38;1.35;;;;;;;4.42;79.03;102026.03;6133672;23;20028;-78
2023/03/27 07:15:05;;;;;;;10.30;1.95;;;;;;;4.49;79.17;102031.34;6134455;23;20022;-78
2023/03/27 07:17:32;;;;;;;8.57;1.40;;;;;;;4.58;78.71;102029.91;6160129;23;20021;-78
2023/03/27 07:20:15;;;;;;;3.45;1.10;;;;;;;4.65;78.42;102048.44;6160691;23;20476;-77
2023/03/27 07:22:42;;;;;;;4.70;1.13;;;;;;;4.76;77.59;102042.47;6134149;23;20105;-80
2023/03/27 07:25:18;;;;;;;3.00;1.17;;;;;;;4.89;77.21;102046.31;6134062;23;20025;-77
2023/03/27 07:27:45;;;;;;;6.97;1.35;;;;;;;4.92;76.81;102043.69;6133806;23;20464;-78
2023/03/27 07:30:13;;;;;;;3.80;1.08;;;;;;;4.99;76.49;102051.66;6134144;23;20018;-80
2023/03/27 07:32:43;;;;;;;5.72;1.70;;;;;;;5.15;75.79;102056.66;6134161;23;20448;-80
2023/03/27 07:35:10;;;;;;;4.07;1.00;;;;;;;5.15;75.60;102061.19;6134321;23;20018;-79
2023/03/27 07:37:56;;;;;;;5.32;1.40;;;;;;;5.23;75.83;102062.69;6161000;23;20022;-78
2023/03/27 07:40:35;;;;;;;4.18;1.10;;;;;;;5.17;75.34;102078.16;6161147;23;20022;-78
2023/03/27 07:43:37;;;;;;;4.13;0.80;;;;;;;5.34;73.73;102072.19;6069372;23;20027;-78
2023/03/27 07:46:05;;;;;;;1.50;0.50;;;;;;;5.47;73.29;102075.28;6045679;23;20020;-77
2023/03/27 07:48:34;;;;;;;5.38;0.95;;;;;;;5.58;71.70;102076.06;6045017;23;20023;-75
2023/03/27 07:51:01;;;;;;;3.53;0.63;;;;;;;5.71;70.90;102079.13;6069989;23;20047;-78
2023/03/27 07:53:40;;;;;;;0.65;0.60;;;;;;;5.86;70.89;102082.56;6069997;23;20027;-75
2023/03/27 07:56:32;;;;;;;1.33;0.77;;;;;;;5.98;69.88;102080.38;6068882;23;20023;-79
2023/03/27 07:59:20;;;;;;;0.93;0.35;;;;;;;5.97;69.97;102088.66;6069799;23;20024;-79
2023/03/27 08:01:49;;;;;;;8.95;0.70;;;;;;;6.00;70.71;102098.47;6045680;23;20071;-79
2023/03/27 08:04:17;;;;;;;1.38;0.68;;;;;;;6.10;69.75;102096.97;6069962;23;20031;-78
2023/03/27 08:06:57;;;;;;;2.72;0.60;;;;;;;6.14;69.92;102103.03;6066441;23;20019;-78
2023/03/27 08:09:24;;;;;;;2.63;0.73;;;;;;;6.27;70.06;102090.97;6069508;23;20019;-78
2023/03/27 08:11:50;;;;;;;8.98;0.82;;;;;;;6.47;69.35;102099.28;6069003;23;20019;-78
2023/03/27 08:14:17;;;;;;;1.17;0.52;;;;;;;6.48;69.15;102106.84;6045322;23;20027;-77
2023/03/27 08:16:45;;;;;;;4.65;0.90;;;;;;;6.44;68.89;102102.69;6045657;23;20102;-78
2023/03/27 08:19:12;;;;;;;4.07;0.80;;;;;;;6.14;69.28;102109.06;6110369;23;20503;-77
2023/03/27 08:21:44;;;;;;;1.23;0.80;;;;;;;6.15;69.48;102120.41;6133803;23;20081;-77
2023/03/27 08:24:10;;;;;;;2.72;0.70;;;;;;;5.94;70.26;102121.13;6133875;23;21015;-77
2023/03/27 08:27:06;;;;;;;2.97;0.80;;;;;;;6.14;70.91;102124.94;6148414;23;20089;-79
2023/03/27 08:29:37;;;;;;;4.53;1.10;;;;;;;6.35;69.49;102121.59;6134045;23;20407;-77
2023/03/27 08:32:09;;;;;;;3.90;0.98;;;;;;;6.52;68.22;102135.94;6159158;23;20042;-77
2023/03/27 08:34:39;;;;;;;4.30;1.00;;;;;;;6.66;67.87;102135.97;6133496;23;20026;-79
2023/03/27 08:37:07;;;;;;;3.20;1.10;;;;;;;6.86;67.72;102137.06;6133877;23;20050;-80
2023/03/27 08:39:57;;;;;;;4.28;0.57;;;;;;;7.02;66.66;102142.75;6135905;23;20460;-80
2023/03/27 08:42:33;;;;;;;4.35;0.63;;;;;;;6.67;66.62;102145.41;6133895;23;20022;-79
2023/03/27 08:45:08;;;;;;;2.35;0.50;;;;;;;6.71;65.88;102151.47;6135115;23;20025;-79
2023/03/27 08:47:49;;;;;;;2.63;0.80;;;;;;;6.79;64.82;102147.69;6159016;23;20069;-79
2023/03/27 08:50:40;;;;;;;1.85;0.47;;;;;;;6.84;64.98;102155.22;6134730;23;20029;-80
2023/03/27 08:53:31;;;;;;;10.05;0.80;;;;;;;6.98;64.44;102155.22;6134090;23;20018;-79
2023/03/27 08:56:00;;;;;;;4.85;0.60;;;;;;;7.10;63.21;102163.91;6133622;23;20022;-79
2023/03/27 08:58:39;;;;;;;2.78;1.00;;;;;;;7.28;62.18;102167.28;6134314;23;20363;-80
2023/03/27 09:01:47;;;;;;;4.65;0.98;;;;;;;7.46;61.85;102168.00;6159988;23;20025;-76
2023/03/27 09:04:27;;;;;;;3.28;0.50;;;;;;;7.54;61.92;102179.34;6090561;23;20024;-78
2023/03/27 09:07:05;;;;;;;2.47;0.82;;;;;;;7.70;61.63;102184.97;6133807;23;20029;-78
2023/03/27 09:10:00;;;;;;;5.45;0.75;;;;;;;7.82;61.56;102178.47;6110085;23;20408;-77
2023/03/27 09:13:03;;;;;;;4.03;0.85;;;;;;;8.15;61.56;102183.25;6133462;23;20040;-80
2023/03/27 09:15:38;;;;;;;8.43;0.60;;;;;;;7.75;59.02;102200.47;6133884;23;20490;-78
2023/03/27 09:18:13;;;;;;;;;;;;;;;7.40;61.99;102192.63;6158773;23;20100;-78
2023/03/27 09:20:45;;;;;;;4.15;0.85;;;;;;;7.26;60.42;102201.34;6133633;23;20004;-78
2023/03/27 09:23:24;;;;;;;4.25;0.70;;;;;;;7.67;60.12;102197.06;6132761;23;20022;-78
2023/03/27 09:26:15;;;;;;;4.57;0.68;;;;;;;8.06;61.96;102251.09;6159735;23;20030;-76
2023/03/27 09:29:19;;;;;;;4.00;0.82;;;;;;;6.84;66.48;102245.22;6160151;23;20536;-78
2023/03/27 09:31:55;;;;;;;3.75;1.27;;;;;;;6.11;70.93;102265.81;6133631;23;20044;-75
2023/03/27 09:34:26;;;;;;;3.67;0.93;;;;;;;5.54;72.87;102262.84;6133283;23;20018;-76
2023/03/27 09:36:53;;;;;;;3.72;0.80;;;;;;;5.13;74.34;102271.97;6159986;23;20021;-76
2023/03/27 09:39:26;;;;;;;1.17;0.63;;;;;;;4.84;75.16;102278.84;6133144;23;20026;-75
2023/03/27 09:42:15;;;;;;;3.53;0.70;;;;;;;4.54;76.80;102266.50;6132677;23;20022;-76
2023/03/27 09:44:49;;;;;;;3.28;0.63;;;;;;;4.45;77.24;102246.78;6133548;23;20405;-77
2023/03/27 09:47:36;;;;;;;3.22;0.52;;;;;;;4.51;77.12;102224.25;6133189;23;20360;-77
2023/03/27 09:50:27;;;;;;;2.05;0.60;;;;;;;4.65;76.74;102238.34;6158343;23;20021;-78
2023/03/27 09:53:11;;;;;;;1.83;0.50;;;;;;;4.82;76.44;102239.63;6132974;23;20593;-80
2023/03/27 09:55:55;;;;;;;0.80;0.40;;;;;;;5.23;76.74;102239.59;6133819;23;20453;-80
2023/03/27 09:58:26;;;;;;;1.38;0.63;;;;;;;5.46;76.31;102239.41;6133483;23;20024;-78
2023/03/27 10:01:19;;;;;;;2.35;0.60;;;;;;;5.77;76.74;102233.53;6108628;23;20029;-80
2023/03/27 10:03:53;;;;;;;3.47;0.43;;;;;;;5.97;76.43;102231.41;6132873;23;20026;-79
2023/03/27 10:06:47;;;;;;;5.47;0.68;;;;;;;6.24;76.76;102234.53;6132256;23;20105;-78
2023/03/27 10:09:34;;;;;;;2.33;0.90;;;;;;;6.37;75.93;102232.31;6110952;23;20021;-77
2023/03/27 10:12:06;;;;;;;2.63;0.60;;;;;;;6.35;76.05;102240.63;6110039;23;20081;-76
2023/03/27 10:14:40;;;;;;;1.42;0.88;;;;;;;6.42;73.95;102234.56;6133821;23;20022;-76
2023/03/27 10:17:24;;;;;;;3.70;0.80;;;;;;;6.39;73.80;102243.28;6132618;23;20363;-75
2023/03/27 10:20:10;;;;;;;2.03;0.63;;;;;;;6.45;74.00;102242.50;6134542;23;20018;-78
2023/03/27 10:22:40;;;;;;;2.92;0.60;;;;;;;6.70;74.72;102239.94;6132746;23;20237;-76
2023/03/27 10:25:38;;;;;;;4.50;0.68;;;;;;;6.84;75.01;102241.81;6133328;23;20368;-79
2023/03/27 10:28:27;;;;;;;1.55;0.70;;;;;;;6.93;73.54;102234.28;6133054;23;20048;-78
2023/03/27 10:31:27;;;;;;;1.98;0.60;;;;;;;6.97;72.58;102225.19;6132965;23;20097;-78
2023/03/27 10:34:02;;;;;;;1.52;0.63;;;;;;;7.02;70.52;102229.38;6133762;23;20519;-78
2023/03/27 10:36:48;;;;;;;4.82;0.73;;;;;;;7.36;71.09;102230.47;6159243;23;20022;-78
2023/03/27 10:39:19;;;;;;;4.45;0.80;;;;;;;7.56;70.49;102224.78;6132571;23;20104;-76
2023/03/27 10:42:15;;;;;;;4.63;0.88;;;;;;;7.68;69.74;102238.34;6132908;23;20028;-77
2023/03/27 10:44:48;;;;;;;6.43;0.65;;;;;;;7.36;68.35;102241.06;6110006;23;20081;-76
2023/03/27 10:47:18;;;;;;;2.75;0.90;;;;;;;6.97;70.75;102249.03;6132724;23;20014;-77
2023/03/27 10:50:09;;;;;;;2.72;0.73;;;;;;;6.65;70.69;102250.88;6132594;23;20085;-76
2023/03/27 10:52:54;;;;;;;2.80;0.90;;;;;;;6.34;71.43;102245.16;6102267;23;20029;-76
2023/03/27 10:56:04;;;;;;;4.20;1.40;;;;;;;6.22;72.30;102248.13;6132545;23;20491;-75
2023/03/27 10:58:50;;;;;;;4.03;1.63;;;;;;;6.53;71.97;102253.88;6132351;23;20026;-76
2023/03/27 11:01:33;;;;;;;2.45;0.75;;;;;;;6.69;69.78;102254.28;6132473;23;20018;-76
2023/03/27 11:04:09;;;;;;;1.95;0.65;;;;;;;6.92;68.61;102248.66;6132361;23;20026;-77
2023/03/27 11:06:48;;;;;;;5.03;0.98;;;;;;;7.11;67.54;102256.22;6110358;23;20474;-77
2023/03/27 11:09:25;;;;;;;3.43;1.00;;;;;;;7.42;68.17;102252.03;6132324;23;20014;-77
2023/03/27 11:12:09;;;;;;;3.85;0.90;;;;;;;7.30;63.41;102260.38;6132878;23;20215;-77
2023/03/27 11:14:58;;;;;;;3.17;1.08;;;;;;;7.02;62.68;102269.84;6110033;23;20026;-77
2023/03/27 11:17:34;;;;;;;8.68;0.93;;;;;;;6.98;60.50;102263.78;6132775;23;20026;-76
2023/03/27 11:20:24;;;;;;;8.90;0.80;;;;;;;7.17;62.21;102254.72;6109925;23;20026;-77
2023/03/27 11:22:58;;;;;;;1.38;0.88;;;;;;;7.42;59.55;102260.00;6133612;23;20460;-77
2023/03/27 11:25:43;;;;;;;3.38;0.80;;;;;;;7.65;59.58;102262.97;6132449;23;20022;-76
2023/03/27 11:28:23;;;;;;;3.90;0.73;;;;;;;7.91;58.98;102271.63;6132152;23;20034;-78
2023/03/27 11:30:55;;;;;;;2.53;1.10;;;;;;;7.85;61.48;102284.53;6133298;23;20053;-77
2023/03/27 11:33:26;;;;;;;2.63;0.57;;;;;;;7.63;63.96;102310.31;6132270;23;20017;-78
2023/03/27 11:36:15;;;;;;;1.85;0.90;;;;;;;6.86;66.99;102332.22;6133090;23;20049;-78
2023/03/27 11:38:55;;;;;;;2.38;0.73;;;;;;;6.19;69.31;102328.19;6109253;23;20026;-80
2023/03/27 11:41:22;;;;;;;7.72;0.90;;;;;;;5.69;71.09;102342.94;6132313;23;20459;-78
2023/03/27 11:43:48;;;;;;;4.70;1.13;;;;;;;5.36;72.45;102317.41;6132659;23;20025;-77
2023/03/27 11:47:23;;;;;;;3.30;0.73;;;;;;;5.31;73.30;102318.50;6039591;23;20106;-76
2023/03/27 11:50:11;;;;;;;1.73;0.40;;;;;;;5.63;73.30;102315.34;6037983;23;20028;-76
2023/03/27 11:53:05;;;;;;;2.75;0.80;;;;;;;5.88;72.38;102321.56;6039705;23;20020;-79
2023/03/27 11:56:12;;;;;;;9.52;1.25;;;;;;;6.01;70.43;102319.41;6021166;23;20089;-78
2023/03/27 11:59:17;;;;;;;5.00;0.98;;;;;;;6.23;69.98;102320.28;6017065;23;20020;-77
2023/03/27 12:02:20;;;;;;;1.50;0.80;;;;;;;6.31;68.69;102322.59;6040447;23;20031;-77
2023/03/27 12:04:54;;;;;;;4.32;0.90;;;;;;;6.45;67.74;102327.16;6016720;23;20020;-78
2023/03/27 12:08:01;;;;;;;6.32;1.90;;;;;;;6.71;68.08;102334.06;6041175;23;20068;-78
2023/03/27 12:10:36;;;;;;;3.28;1.10;;;;;;;6.76;66.67;102320.47;6040472;23;20020;-78
2023/03/27 12:13:27;;;;;;;3.08;1.00;;;;;;;6.76;65.90;102309.91;6041321;23;20093;-79
2023/03/27 12:16:18;;;;;;;2.00;0.95;;;;;;;6.88;64.82;102316.72;6039970;23;20024;-78
2023/03/27 12:19:34;;;;;;;1.65;0.85;;;;;;;7.02;62.88;102309.56;6016108;23;20047;-79
2023/03/27 12:22:34;;;;;;;3.80;0.98;;;;;;;7.19;64.75;102333.81;6094779;23;20044;-78